HAZ7777 ZSPD-ZSHC
Flight info
| Callsign | HAZ7777 |
|---|---|
| Flight time | 0h 41m |
| Altitude | 7900 |
| Route | AND02D AND B221 SUPAR W505 DSH |
| Aircraft | A321/M-SDE3FGHIRWY/LB1 |
Departure
| Time | 2026-04-30 11:43 |
|---|---|
| Airport | Shanghai Pudong International Airport (ZSPD) |
Arrival
| Time | 2026-04-30 12:24 |
|---|---|
| Airport | Hangzhou Xiaoshan International Airport (ZSHC) |
| Time | Latitude | Longitude | Altitude | Speed | Heading |
|---|---|---|---|---|---|
| 2026-04-30 11:11 | 31.15500 | 121.79678 | 23 ft | 0 kts | 252° |
| 2026-04-30 11:22 | 31.15505 | 121.79697 | 23 ft | 4 kts | 252° |
| 2026-04-30 11:23 | 31.15512 | 121.79721 | 23 ft | 4 kts | 266° |
| 2026-04-30 11:23 | 31.15507 | 121.79749 | 25 ft | 4 kts | 310° |
| 2026-04-30 11:23 | 31.15481 | 121.79767 | 25 ft | 0 kts | 342° |
| 2026-04-30 11:28 | 31.15482 | 121.79766 | 23 ft | 0 kts | 342° |
| 2026-04-30 11:29 | 31.15483 | 121.79766 | 23 ft | 0 kts | 342° |
| 2026-04-30 11:30 | 31.15562 | 121.79736 | 24 ft | 19 kts | 342° |
| 2026-04-30 11:30 | 31.15696 | 121.79687 | 23 ft | 21 kts | 342° |
| 2026-04-30 11:30 | 31.15765 | 121.79638 | 23 ft | 0 kts | 297° |
| 2026-04-30 11:31 | 31.15766 | 121.79636 | 23 ft | 1 kts | 297° |
| 2026-04-30 11:31 | 31.15771 | 121.79619 | 23 ft | 3 kts | 286° |
| 2026-04-30 11:32 | 31.15769 | 121.79579 | 23 ft | 7 kts | 256° |
| 2026-04-30 11:32 | 31.15749 | 121.79504 | 25 ft | 12 kts | 250° |
| 2026-04-30 11:32 | 31.15717 | 121.79395 | 25 ft | 17 kts | 252° |
| 2026-04-30 11:33 | 31.15634 | 121.79087 | 23 ft | 24 kts | 252° |
| 2026-04-30 11:33 | 31.15543 | 121.79038 | 22 ft | 16 kts | 167° |
| 2026-04-30 11:33 | 31.15435 | 121.79078 | 22 ft | 18 kts | 162° |
| 2026-04-30 11:33 | 31.15309 | 121.79126 | 23 ft | 20 kts | 162° |
| 2026-04-30 11:34 | 31.15174 | 121.79176 | 23 ft | 21 kts | 162° |
| 2026-04-30 11:34 | 31.15029 | 121.79231 | 23 ft | 23 kts | 162° |
| 2026-04-30 11:34 | 31.14875 | 121.79290 | 23 ft | 24 kts | 162° |
| 2026-04-30 11:34 | 31.14727 | 121.79345 | 24 ft | 25 kts | 162° |
| 2026-04-30 11:35 | 31.14551 | 121.79413 | 23 ft | 27 kts | 162° |
| 2026-04-30 11:35 | 31.14372 | 121.79480 | 24 ft | 27 kts | 162° |
| 2026-04-30 11:35 | 31.14195 | 121.79547 | 23 ft | 27 kts | 162° |
| 2026-04-30 11:35 | 31.14018 | 121.79614 | 23 ft | 26 kts | 162° |
| 2026-04-30 11:36 | 31.13839 | 121.79681 | 24 ft | 28 kts | 162° |
| 2026-04-30 11:36 | 31.13664 | 121.79747 | 24 ft | 23 kts | 162° |
| 2026-04-30 11:36 | 31.13505 | 121.79807 | 23 ft | 25 kts | 162° |
| 2026-04-30 11:36 | 31.13339 | 121.79870 | 22 ft | 26 kts | 162° |
| 2026-04-30 11:37 | 31.13163 | 121.79936 | 23 ft | 27 kts | 162° |
| 2026-04-30 11:37 | 31.12987 | 121.80002 | 23 ft | 21 kts | 166° |
| 2026-04-30 11:37 | 31.12938 | 121.79969 | 23 ft | 6 kts | 242° |
| 2026-04-30 11:37 | 31.12929 | 121.79939 | 24 ft | 0 kts | 250° |
| 2026-04-30 11:38 | 31.12927 | 121.79933 | 24 ft | 0 kts | 251° |
| 2026-04-30 11:41 | 31.12923 | 121.79920 | 24 ft | 3 kts | 251° |
| 2026-04-30 11:41 | 31.12906 | 121.79863 | 22 ft | 12 kts | 251° |
| 2026-04-30 11:42 | 31.12912 | 121.79813 | 30 ft | 8 kts | 317° |
| 2026-04-30 11:42 | 31.12935 | 121.79802 | 22 ft | 7 kts | 338° |
| 2026-04-30 11:42 | 31.13258 | 121.79679 | 24 ft | 89 kts | 342° |
| 2026-04-30 11:42 | 31.14072 | 121.79372 | 21 ft | 154 kts | 342° |
| 2026-04-30 11:43 | 31.15087 | 121.79008 | 481 ft | 164 kts | 344° |
| 2026-04-30 11:43 | 31.16183 | 121.78615 | 1213 ft | 165 kts | 341° |
| 2026-04-30 11:43 | 31.17276 | 121.78182 | 1922 ft | 168 kts | 340° |
| 2026-04-30 11:43 | 31.18447 | 121.77698 | 2259 ft | 189 kts | 339° |
| 2026-04-30 11:44 | 31.19759 | 121.77153 | 2537 ft | 212 kts | 340° |
| 2026-04-30 11:44 | 31.21207 | 121.76556 | 2851 ft | 236 kts | 339° |
| 2026-04-30 11:44 | 31.22835 | 121.75885 | 2997 ft | 254 kts | 339° |
| 2026-04-30 11:44 | 31.24522 | 121.75194 | 3495 ft | 258 kts | 340° |
| 2026-04-30 11:45 | 31.26214 | 121.74504 | 4438 ft | 257 kts | 340° |
| 2026-04-30 11:45 | 31.27898 | 121.73818 | 5360 ft | 256 kts | 340° |
| 2026-04-30 11:45 | 31.29582 | 121.73134 | 6249 ft | 256 kts | 340° |
| 2026-04-30 11:45 | 31.31264 | 121.72442 | 7063 ft | 257 kts | 337° |
| 2026-04-30 11:46 | 31.32782 | 121.71339 | 7679 ft | 260 kts | 316° |
| 2026-04-30 11:46 | 31.33794 | 121.69640 | 7841 ft | 260 kts | 293° |
| 2026-04-30 11:46 | 31.34135 | 121.67563 | 7891 ft | 264 kts | 271° |
| 2026-04-30 11:46 | 31.33846 | 121.65429 | 7896 ft | 267 kts | 262° |
| 2026-04-30 11:47 | 31.33481 | 121.63300 | 7901 ft | 267 kts | 262° |
| 2026-04-30 11:47 | 31.33124 | 121.61171 | 7899 ft | 267 kts | 263° |
| 2026-04-30 11:47 | 31.32772 | 121.59039 | 7898 ft | 267 kts | 263° |
| 2026-04-30 11:47 | 31.32423 | 121.56909 | 7896 ft | 267 kts | 263° |
| 2026-04-30 11:48 | 31.32071 | 121.54779 | 7897 ft | 267 kts | 261° |
| 2026-04-30 11:48 | 31.31334 | 121.52803 | 7905 ft | 275 kts | 237° |
| 2026-04-30 11:48 | 31.29851 | 121.51352 | 7895 ft | 286 kts | 209° |
| 2026-04-30 11:48 | 31.27886 | 121.50865 | 7905 ft | 296 kts | 179° |
| 2026-04-30 11:49 | 31.25872 | 121.51404 | 7905 ft | 301 kts | 164° |
| 2026-04-30 11:49 | 31.23875 | 121.52159 | 7904 ft | 301 kts | 163° |
| 2026-04-30 11:49 | 31.21884 | 121.52928 | 7905 ft | 301 kts | 164° |
| 2026-04-30 11:49 | 31.19899 | 121.53699 | 7903 ft | 301 kts | 164° |
| 2026-04-30 11:50 | 31.17907 | 121.54471 | 7903 ft | 301 kts | 164° |
| 2026-04-30 11:50 | 31.15946 | 121.55226 | 7896 ft | 301 kts | 164° |
| 2026-04-30 11:50 | 31.13953 | 121.55989 | 7905 ft | 301 kts | 164° |
| 2026-04-30 11:50 | 31.11962 | 121.56746 | 7905 ft | 301 kts | 164° |
| 2026-04-30 11:51 | 31.09970 | 121.57504 | 7903 ft | 301 kts | 164° |
| 2026-04-30 11:51 | 31.07977 | 121.58259 | 7898 ft | 301 kts | 164° |
| 2026-04-30 11:51 | 31.05984 | 121.59011 | 7900 ft | 301 kts | 164° |
| 2026-04-30 11:51 | 31.03994 | 121.59765 | 7896 ft | 301 kts | 165° |
| 2026-04-30 11:52 | 31.02000 | 121.60524 | 7901 ft | 302 kts | 165° |
| 2026-04-30 11:52 | 31.00033 | 121.61270 | 7900 ft | 302 kts | 165° |
| 2026-04-30 11:52 | 30.98037 | 121.62027 | 7899 ft | 301 kts | 165° |
| 2026-04-30 11:52 | 30.96044 | 121.62783 | 7899 ft | 301 kts | 165° |
| 2026-04-30 11:53 | 30.94048 | 121.63539 | 7900 ft | 302 kts | 165° |
| 2026-04-30 11:53 | 30.92052 | 121.64293 | 7894 ft | 302 kts | 165° |
| 2026-04-30 11:53 | 30.90056 | 121.65048 | 7894 ft | 302 kts | 165° |
| 2026-04-30 11:53 | 30.88058 | 121.65806 | 7894 ft | 302 kts | 165° |
| 2026-04-30 11:54 | 30.86064 | 121.66562 | 7897 ft | 302 kts | 165° |
| 2026-04-30 11:54 | 30.84092 | 121.67307 | 7896 ft | 302 kts | 165° |
| 2026-04-30 11:54 | 30.82093 | 121.68061 | 7899 ft | 302 kts | 165° |
| 2026-04-30 11:54 | 30.80092 | 121.68817 | 7899 ft | 302 kts | 165° |
| 2026-04-30 11:55 | 30.78093 | 121.69570 | 7895 ft | 302 kts | 165° |
| 2026-04-30 11:55 | 30.76092 | 121.70326 | 7895 ft | 303 kts | 165° |
| 2026-04-30 11:55 | 30.74087 | 121.71083 | 7896 ft | 303 kts | 165° |
| 2026-04-30 11:55 | 30.72079 | 121.71842 | 7899 ft | 303 kts | 165° |
| 2026-04-30 11:56 | 30.70750 | 121.72344 | 7904 ft | 303 kts | 165° |
| 2026-04-30 11:56 | 30.68062 | 121.73362 | 7902 ft | 303 kts | 165° |
| 2026-04-30 11:56 | 30.66053 | 121.74118 | 7902 ft | 304 kts | 166° |
| 2026-04-30 11:56 | 30.64068 | 121.74861 | 7913 ft | 303 kts | 166° |
| 2026-04-30 11:57 | 30.62059 | 121.75613 | 7915 ft | 303 kts | 166° |
| 2026-04-30 11:57 | 30.60025 | 121.76173 | 7918 ft | 298 kts | 180° |
| 2026-04-30 11:57 | 30.57996 | 121.75964 | 7921 ft | 289 kts | 201° |
| 2026-04-30 11:57 | 30.56203 | 121.75016 | 7921 ft | 280 kts | 220° |
| 2026-04-30 11:58 | 30.55231 | 121.74065 | 7906 ft | 274 kts | 232° |
| 2026-04-30 11:58 | 30.53791 | 121.71712 | 7905 ft | 269 kts | 242° |
| 2026-04-30 11:58 | 30.52768 | 121.69888 | 7899 ft | 270 kts | 242° |
| 2026-04-30 11:58 | 30.52070 | 121.68649 | 7905 ft | 270 kts | 242° |
| 2026-04-30 11:59 | 30.51055 | 121.66854 | 7907 ft | 271 kts | 242° |
| 2026-04-30 11:59 | 30.49674 | 121.64413 | 7907 ft | 271 kts | 242° |
| 2026-04-30 11:59 | 30.48644 | 121.62593 | 7902 ft | 270 kts | 242° |
| 2026-04-30 11:59 | 30.47612 | 121.60769 | 7902 ft | 270 kts | 242° |
| 2026-04-30 12:00 | 30.46927 | 121.59563 | 7901 ft | 270 kts | 242° |
| 2026-04-30 12:00 | 30.45892 | 121.57740 | 7904 ft | 271 kts | 242° |
| 2026-04-30 12:00 | 30.44863 | 121.55927 | 7904 ft | 271 kts | 242° |
| 2026-04-30 12:00 | 30.43489 | 121.53502 | 7905 ft | 271 kts | 242° |
| 2026-04-30 12:01 | 30.42457 | 121.51678 | 7898 ft | 271 kts | 242° |
| 2026-04-30 12:01 | 30.41423 | 121.49850 | 7901 ft | 272 kts | 242° |
| 2026-04-30 12:01 | 30.40384 | 121.48014 | 7902 ft | 272 kts | 242° |
| 2026-04-30 12:01 | 30.39698 | 121.46802 | 7905 ft | 272 kts | 242° |
| 2026-04-30 12:02 | 30.38658 | 121.44972 | 7908 ft | 272 kts | 242° |
| 2026-04-30 12:02 | 30.37612 | 121.43135 | 7907 ft | 272 kts | 242° |
| 2026-04-30 12:02 | 30.36575 | 121.41314 | 7904 ft | 273 kts | 242° |
| 2026-04-30 12:02 | 30.35653 | 121.39694 | 7907 ft | 273 kts | 242° |
| 2026-04-30 12:03 | 30.34609 | 121.37858 | 7904 ft | 273 kts | 242° |
| 2026-04-30 12:03 | 30.32519 | 121.34187 | 7907 ft | 273 kts | 242° |
| 2026-04-30 12:03 | 30.31136 | 121.31758 | 7907 ft | 273 kts | 242° |
| 2026-04-30 12:04 | 30.30444 | 121.30545 | 7910 ft | 273 kts | 242° |
| 2026-04-30 12:04 | 30.29397 | 121.28714 | 7910 ft | 273 kts | 242° |
| 2026-04-30 12:04 | 30.28349 | 121.26883 | 7910 ft | 273 kts | 242° |
| 2026-04-30 12:04 | 30.27303 | 121.25052 | 7910 ft | 273 kts | 242° |
| 2026-04-30 12:05 | 30.26258 | 121.23216 | 7905 ft | 274 kts | 242° |
| 2026-04-30 12:05 | 30.25199 | 121.21384 | 7909 ft | 275 kts | 240° |
| 2026-04-30 12:05 | 30.23713 | 121.19011 | 7910 ft | 275 kts | 239° |
| 2026-04-30 12:05 | 30.22937 | 121.17813 | 7913 ft | 275 kts | 238° |
| 2026-04-30 12:06 | 30.21801 | 121.16072 | 7912 ft | 275 kts | 238° |
| 2026-04-30 12:06 | 30.20711 | 121.14402 | 7913 ft | 275 kts | 238° |
| 2026-04-30 12:06 | 30.19567 | 121.12640 | 7909 ft | 276 kts | 238° |
| 2026-04-30 12:06 | 30.18419 | 121.10863 | 7912 ft | 276 kts | 238° |
| 2026-04-30 12:07 | 30.17272 | 121.09082 | 7913 ft | 276 kts | 239° |
| 2026-04-30 12:07 | 30.16127 | 121.07301 | 7913 ft | 276 kts | 239° |
| 2026-04-30 12:07 | 30.14980 | 121.05517 | 7913 ft | 276 kts | 239° |
| 2026-04-30 12:07 | 30.13857 | 121.03773 | 7913 ft | 276 kts | 238° |
| 2026-04-30 12:08 | 30.12710 | 121.01997 | 7918 ft | 276 kts | 238° |
| 2026-04-30 12:08 | 30.11575 | 121.00238 | 7915 ft | 276 kts | 238° |
| 2026-04-30 12:08 | 30.10443 | 120.98483 | 7915 ft | 276 kts | 238° |
| 2026-04-30 12:08 | 30.09296 | 120.96703 | 7916 ft | 276 kts | 238° |
| 2026-04-30 12:09 | 30.08146 | 120.94921 | 7912 ft | 277 kts | 238° |
| 2026-04-30 12:09 | 30.06994 | 120.93134 | 7915 ft | 278 kts | 239° |
| 2026-04-30 12:09 | 30.05849 | 120.91349 | 7916 ft | 278 kts | 239° |
| 2026-04-30 12:09 | 30.04743 | 120.89619 | 7916 ft | 278 kts | 239° |
| 2026-04-30 12:10 | 30.03706 | 120.87761 | 7914 ft | 272 kts | 250° |
| 2026-04-30 12:10 | 30.03187 | 120.85696 | 7918 ft | 266 kts | 268° |
| 2026-04-30 12:10 | 30.03233 | 120.83597 | 7918 ft | 261 kts | 284° |
| 2026-04-30 12:10 | 30.03777 | 120.81648 | 7920 ft | 258 kts | 294° |
| 2026-04-30 12:11 | 30.04462 | 120.79732 | 7914 ft | 259 kts | 294° |
| 2026-04-30 12:11 | 30.05132 | 120.77835 | 7915 ft | 259 kts | 294° |
| 2026-04-30 12:11 | 30.05816 | 120.75886 | 7918 ft | 259 kts | 294° |
| 2026-04-30 12:11 | 30.06478 | 120.73993 | 7920 ft | 259 kts | 294° |
| 2026-04-30 12:12 | 30.07168 | 120.72028 | 7923 ft | 259 kts | 294° |
| 2026-04-30 12:12 | 30.07844 | 120.70102 | 7916 ft | 259 kts | 294° |
| 2026-04-30 12:12 | 30.08520 | 120.68176 | 7916 ft | 259 kts | 294° |
| 2026-04-30 12:12 | 30.09196 | 120.66254 | 7915 ft | 259 kts | 294° |
| 2026-04-30 12:13 | 30.09862 | 120.64349 | 7910 ft | 259 kts | 294° |
| 2026-04-30 12:13 | 30.10539 | 120.62422 | 7911 ft | 259 kts | 294° |
| 2026-04-30 12:13 | 30.11216 | 120.60494 | 7911 ft | 259 kts | 294° |
| 2026-04-30 12:13 | 30.11949 | 120.58599 | 7915 ft | 258 kts | 304° |
| 2026-04-30 12:14 | 30.13195 | 120.57149 | 7918 ft | 257 kts | 328° |
| 2026-04-30 12:14 | 30.14889 | 120.56480 | 7918 ft | 262 kts | 352° |
| 2026-04-30 12:14 | 30.16703 | 120.56764 | 7913 ft | 271 kts | 18° |
| 2026-04-30 12:14 | 30.18257 | 120.58038 | 7916 ft | 283 kts | 46° |
| 2026-04-30 12:15 | 30.19264 | 120.59987 | 7912 ft | 289 kts | 58° |
| 2026-04-30 12:15 | 30.20167 | 120.62024 | 7794 ft | 279 kts | 58° |
| 2026-04-30 12:15 | 30.21028 | 120.63983 | 7673 ft | 268 kts | 58° |
| 2026-04-30 12:15 | 30.21857 | 120.65867 | 7534 ft | 258 kts | 58° |
| 2026-04-30 12:16 | 30.22658 | 120.67671 | 7424 ft | 246 kts | 55° |
| 2026-04-30 12:16 | 30.23718 | 120.69035 | 7297 ft | 220 kts | 21° |
| 2026-04-30 12:16 | 30.25100 | 120.69344 | 7202 ft | 192 kts | 348° |
| 2026-04-30 12:16 | 30.26249 | 120.68839 | 6899 ft | 173 kts | 331° |
| 2026-04-30 12:17 | 30.28271 | 120.67623 | 6132 ft | 155 kts | 331° |
| 2026-04-30 12:17 | 30.29202 | 120.67062 | 5837 ft | 148 kts | 330° |
| 2026-04-30 12:17 | 30.30104 | 120.66518 | 5564 ft | 145 kts | 330° |
| 2026-04-30 12:18 | 30.30991 | 120.65985 | 5304 ft | 142 kts | 330° |
| 2026-04-30 12:18 | 30.31868 | 120.65458 | 5047 ft | 141 kts | 330° |
| 2026-04-30 12:18 | 30.32645 | 120.64785 | 4795 ft | 140 kts | 310° |
| 2026-04-30 12:18 | 30.33133 | 120.63817 | 4537 ft | 141 kts | 289° |
| 2026-04-30 12:19 | 30.33264 | 120.62704 | 4279 ft | 141 kts | 269° |
| 2026-04-30 12:19 | 30.33021 | 120.61620 | 4018 ft | 143 kts | 247° |
| 2026-04-30 12:19 | 30.32567 | 120.60596 | 3753 ft | 143 kts | 245° |
| 2026-04-30 12:19 | 30.32111 | 120.59573 | 3471 ft | 143 kts | 245° |
| 2026-04-30 12:20 | 30.31657 | 120.58549 | 3186 ft | 143 kts | 245° |
| 2026-04-30 12:20 | 30.31204 | 120.57526 | 2856 ft | 144 kts | 245° |
| 2026-04-30 12:20 | 30.30745 | 120.56485 | 2502 ft | 144 kts | 245° |
| 2026-04-30 12:20 | 30.30297 | 120.55473 | 2247 ft | 143 kts | 245° |
| 2026-04-30 12:21 | 30.29845 | 120.54450 | 2032 ft | 143 kts | 245° |
| 2026-04-30 12:21 | 30.29397 | 120.53434 | 1829 ft | 143 kts | 245° |
| 2026-04-30 12:21 | 30.28942 | 120.52406 | 1628 ft | 143 kts | 245° |
| 2026-04-30 12:21 | 30.28492 | 120.51387 | 1430 ft | 143 kts | 244° |
| 2026-04-30 12:22 | 30.28039 | 120.50364 | 1239 ft | 142 kts | 244° |
| 2026-04-30 12:22 | 30.27588 | 120.49343 | 1053 ft | 142 kts | 244° |
| 2026-04-30 12:22 | 30.27136 | 120.48322 | 864 ft | 143 kts | 244° |
| 2026-04-30 12:22 | 30.26684 | 120.47300 | 684 ft | 143 kts | 243° |
| 2026-04-30 12:23 | 30.26245 | 120.46309 | 509 ft | 143 kts | 243° |
| 2026-04-30 12:23 | 30.25792 | 120.45285 | 321 ft | 143 kts | 242° |
| 2026-04-30 12:23 | 30.25340 | 120.44264 | 135 ft | 143 kts | 242° |
| 2026-04-30 12:23 | 30.24899 | 120.43265 | 50 ft | 129 kts | 242° |
| 2026-04-30 12:24 | 30.24535 | 120.42462 | 29 ft | 93 kts | 242° |
| 2026-04-30 12:24 | 30.24330 | 120.41990 | 33 ft | 36 kts | 233° |
| 2026-04-30 12:24 | 30.24175 | 120.41827 | 32 ft | 28 kts | 216° |
| 2026-04-30 12:24 | 30.24066 | 120.41736 | 32 ft | 19 kts | 216° |
| 2026-04-30 12:25 | 30.23978 | 120.41620 | 30 ft | 20 kts | 238° |
| 2026-04-30 12:25 | 30.23915 | 120.41474 | 32 ft | 21 kts | 242° |
| 2026-04-30 12:25 | 30.23844 | 120.41324 | 32 ft | 22 kts | 232° |
| 2026-04-30 12:25 | 30.23763 | 120.41355 | 32 ft | 12 kts | 71° |
| 2026-04-30 12:26 | 30.23801 | 120.41448 | 32 ft | 14 kts | 63° |
| 2026-04-30 12:26 | 30.23852 | 120.41561 | 32 ft | 17 kts | 62° |
| 2026-04-30 12:26 | 30.23910 | 120.41691 | 32 ft | 20 kts | 63° |
| 2026-04-30 12:26 | 30.23976 | 120.41842 | 32 ft | 22 kts | 63° |
| 2026-04-30 12:27 | 30.24050 | 120.42007 | 32 ft | 24 kts | 62° |
| 2026-04-30 12:27 | 30.24096 | 120.42148 | 32 ft | 7 kts | 125° |
| 2026-04-30 12:27 | 30.24054 | 120.42205 | 32 ft | 12 kts | 107° |
| 2026-04-30 12:27 | 30.24093 | 120.42326 | 32 ft | 21 kts | 62° |
| 2026-04-30 12:28 | 30.24171 | 120.42502 | 32 ft | 20 kts | 63° |
| 2026-04-30 12:28 | 30.24146 | 120.42614 | 31 ft | 13 kts | 149° |
| 2026-04-30 12:28 | 30.24116 | 120.42641 | 32 ft | 0 kts | 143° |